Ardoch, North Dakota
Current Conditions -  °F | °C
As of 4:15 AM on Wednesday 26 Nov 2014 (Local Time) from KGAF Reporting Station
Broken Clouds Broken Clouds  
Wind Chill: -23°   Ceiling: 600
Heat Index: -2°   Visibility: 10mi
Dew Point: -8°   Wind: 16mph
Humidity: 78%   Direction: 360°N
Pressure: 30.32"   Gusts: 23mph
Location:  48.21°N, 97.34°W
Report Text: KGAF 261015Z AUTO 36014G20KT 10SM BKN006 M19/M22 A3032 RMK AO2
Loading
Personal Weather Stations






























Interactive Weather Map New forecast layout! Learn more

10-Day Weather Forecast

Advertisements
Track Severe Weather on mobile